sensor_id;sensor_type;location;lat;lon;timestamp;P1;durP1;ratioP1;P2;durP2;ratioP2
28834;SDS011;15969;51.536;11.884;2023-06-14T00:01:35;3.13;;;1.90;;
28834;SDS011;15969;51.536;11.884;2023-06-14T00:04:03;1.90;;;1.70;;
28834;SDS011;15969;51.536;11.884;2023-06-14T00:06:29;1.80;;;1.60;;
28834;SDS011;15969;51.536;11.884;2023-06-14T00:08:55;3.97;;;1.90;;
28834;SDS011;15969;51.536;11.884;2023-06-14T00:11:21;2.40;;;2.20;;
28834;SDS011;15969;51.536;11.884;2023-06-14T00:13:47;2.57;;;2.10;;
28834;SDS011;15969;51.536;11.884;2023-06-14T00:16:12;2.83;;;1.80;;
28834;SDS011;15969;51.536;11.884;2023-06-14T00:18:38;1.90;;;1.77;;
28834;SDS011;15969;51.536;11.884;2023-06-14T00:21:04;2.67;;;1.90;;
28834;SDS011;15969;51.536;11.884;2023-06-14T00:23:30;1.97;;;1.80;;
28834;SDS011;15969;51.536;11.884;2023-06-14T00:25:56;3.13;;;2.10;;
28834;SDS011;15969;51.536;11.884;2023-06-14T00:28:21;3.57;;;2.13;;
28834;SDS011;15969;51.536;11.884;2023-06-14T00:30:47;2.33;;;1.90;;
28834;SDS011;15969;51.536;11.884;2023-06-14T00:33:13;1.80;;;1.70;;
28834;SDS011;15969;51.536;11.884;2023-06-14T00:35:39;3.17;;;2.20;;
28834;SDS011;15969;51.536;11.884;2023-06-14T00:38:05;3.33;;;1.90;;
28834;SDS011;15969;51.536;11.884;2023-06-14T00:40:30;2.60;;;2.00;;
28834;SDS011;15969;51.536;11.884;2023-06-14T00:42:56;2.93;;;2.00;;
28834;SDS011;15969;51.536;11.884;2023-06-14T00:45:22;5.80;;;2.60;;
28834;SDS011;15969;51.536;11.884;2023-06-14T00:47:47;3.23;;;2.33;;
28834;SDS011;15969;51.536;11.884;2023-06-14T00:50:17;2.07;;;1.63;;
28834;SDS011;15969;51.536;11.884;2023-06-14T00:52:45;2.70;;;2.00;;
28834;SDS011;15969;51.536;11.884;2023-06-14T00:55:11;3.63;;;2.17;;
28834;SDS011;15969;51.536;11.884;2023-06-14T00:57:36;2.97;;;2.10;;
28834;SDS011;15969;51.536;11.884;2023-06-14T01:00:03;4.17;;;2.40;;
28834;SDS011;15969;51.536;11.884;2023-06-14T01:02:33;1.80;;;1.70;;
28834;SDS011;15969;51.536;11.884;2023-06-14T01:05:03;2.93;;;2.40;;
28834;SDS011;15969;51.536;11.884;2023-06-14T01:07:41;3.57;;;2.60;;
28834;SDS011;15969;51.536;11.884;2023-06-14T01:13:33;2.60;;;1.90;;
28834;SDS011;15969;51.536;11.884;2023-06-14T01:16:07;2.63;;;1.93;;
28834;SDS011;15969;51.536;11.884;2023-06-14T01:18:34;2.57;;;2.10;;
28834;SDS011;15969;51.536;11.884;2023-06-14T01:21:00;2.40;;;2.03;;
28834;SDS011;15969;51.536;11.884;2023-06-14T01:23:30;3.17;;;1.87;;
28834;SDS011;15969;51.536;11.884;2023-06-14T01:25:58;3.60;;;2.03;;
28834;SDS011;15969;51.536;11.884;2023-06-14T01:28:25;4.90;;;2.30;;
28834;SDS011;15969;51.536;11.884;2023-06-14T01:30:57;2.20;;;2.00;;
28834;SDS011;15969;51.536;11.884;2023-06-14T01:33:28;2.13;;;1.93;;
28834;SDS011;15969;51.536;11.884;2023-06-14T01:35:56;3.33;;;2.10;;
28834;SDS011;15969;51.536;11.884;2023-06-14T01:38:24;2.67;;;2.30;;
28834;SDS011;15969;51.536;11.884;2023-06-14T01:40:51;5.23;;;2.33;;
28834;SDS011;15969;51.536;11.884;2023-06-14T01:43:20;6.00;;;2.03;;
28834;SDS011;15969;51.536;11.884;2023-06-14T01:45:47;4.73;;;2.33;;
28834;SDS011;15969;51.536;11.884;2023-06-14T01:48:15;2.10;;;1.90;;
28834;SDS011;15969;51.536;11.884;2023-06-14T01:50:42;4.77;;;2.40;;
28834;SDS011;15969;51.536;11.884;2023-06-14T01:53:08;5.97;;;2.30;;
28834;SDS011;15969;51.536;11.884;2023-06-14T01:55:34;2.50;;;2.13;;
28834;SDS011;15969;51.536;11.884;2023-06-14T01:58:02;5.40;;;2.10;;
28834;SDS011;15969;51.536;11.884;2023-06-14T02:00:29;3.00;;;2.70;;
28834;SDS011;15969;51.536;11.884;2023-06-14T02:02:55;2.77;;;2.57;;
28834;SDS011;15969;51.536;11.884;2023-06-14T02:05:20;4.50;;;2.60;;
28834;SDS011;15969;51.536;11.884;2023-06-14T02:07:46;2.60;;;2.40;;
28834;SDS011;15969;51.536;11.884;2023-06-14T02:10:12;4.53;;;2.53;;
28834;SDS011;15969;51.536;11.884;2023-06-14T02:12:39;4.27;;;2.30;;
28834;SDS011;15969;51.536;11.884;2023-06-14T02:15:05;3.20;;;2.27;;
28834;SDS011;15969;51.536;11.884;2023-06-14T02:17:31;2.13;;;1.93;;
28834;SDS011;15969;51.536;11.884;2023-06-14T02:19:57;2.93;;;2.10;;
28834;SDS011;15969;51.536;11.884;2023-06-14T02:22:23;3.50;;;2.27;;
28834;SDS011;15969;51.536;11.884;2023-06-14T02:24:49;2.97;;;2.67;;
28834;SDS011;15969;51.536;11.884;2023-06-14T02:27:15;3.30;;;2.20;;
28834;SDS011;15969;51.536;11.884;2023-06-14T02:29:40;2.13;;;1.93;;
28834;SDS011;15969;51.536;11.884;2023-06-14T02:32:06;2.90;;;2.67;;
28834;SDS011;15969;51.536;11.884;2023-06-14T02:34:32;2.87;;;2.10;;
28834;SDS011;15969;51.536;11.884;2023-06-14T02:36:59;5.33;;;2.90;;
28834;SDS011;15969;51.536;11.884;2023-06-14T02:39:27;4.03;;;2.23;;
28834;SDS011;15969;51.536;11.884;2023-06-14T02:41:54;3.00;;;1.97;;
28834;SDS011;15969;51.536;11.884;2023-06-14T02:44:23;2.43;;;2.23;;
28834;SDS011;15969;51.536;11.884;2023-06-14T02:46:53;2.50;;;2.00;;
28834;SDS011;15969;51.536;11.884;2023-06-14T02:49:20;2.17;;;1.97;;
28834;SDS011;15969;51.536;11.884;2023-06-14T02:51:47;3.93;;;2.20;;
28834;SDS011;15969;51.536;11.884;2023-06-14T02:54:12;2.90;;;2.30;;
28834;SDS011;15969;51.536;11.884;2023-06-14T02:56:38;3.23;;;2.20;;
28834;SDS011;15969;51.536;11.884;2023-06-14T02:59:04;2.90;;;2.60;;
28834;SDS011;15969;51.536;11.884;2023-06-14T03:01:30;3.33;;;2.40;;
28834;SDS011;15969;51.536;11.884;2023-06-14T03:04:06;3.47;;;2.30;;
28834;SDS011;15969;51.536;11.884;2023-06-14T03:06:32;2.00;;;1.90;;
28834;SDS011;15969;51.536;11.884;2023-06-14T03:08:58;4.07;;;2.20;;
28834;SDS011;15969;51.536;11.884;2023-06-14T03:11:26;2.73;;;2.20;;
28834;SDS011;15969;51.536;11.884;2023-06-14T03:13:52;2.47;;;2.00;;
28834;SDS011;15969;51.536;11.884;2023-06-14T03:16:19;2.77;;;2.10;;
28834;SDS011;15969;51.536;11.884;2023-06-14T03:18:46;3.23;;;2.50;;
28834;SDS011;15969;51.536;11.884;2023-06-14T03:21:14;2.30;;;2.00;;
28834;SDS011;15969;51.536;11.884;2023-06-14T03:23:41;3.60;;;2.30;;
28834;SDS011;15969;51.536;11.884;2023-06-14T03:26:07;2.63;;;2.07;;
28834;SDS011;15969;51.536;11.884;2023-06-14T03:28:33;2.23;;;2.03;;
28834;SDS011;15969;51.536;11.884;2023-06-14T03:30:59;3.90;;;1.90;;
28834;SDS011;15969;51.536;11.884;2023-06-14T03:33:26;3.47;;;2.20;;
28834;SDS011;15969;51.536;11.884;2023-06-14T03:35:52;2.13;;;1.93;;
28834;SDS011;15969;51.536;11.884;2023-06-14T03:38:18;3.10;;;2.53;;
28834;SDS011;15969;51.536;11.884;2023-06-14T03:40:43;2.40;;;2.20;;
28834;SDS011;15969;51.536;11.884;2023-06-14T03:43:09;3.17;;;2.20;;
28834;SDS011;15969;51.536;11.884;2023-06-14T03:45:35;2.63;;;2.13;;
28834;SDS011;15969;51.536;11.884;2023-06-14T03:48:01;2.40;;;2.20;;
28834;SDS011;15969;51.536;11.884;2023-06-14T03:50:27;3.10;;;2.60;;
28834;SDS011;15969;51.536;11.884;2023-06-14T03:52:53;2.10;;;1.97;;
28834;SDS011;15969;51.536;11.884;2023-06-14T03:55:19;2.93;;;2.30;;
28834;SDS011;15969;51.536;11.884;2023-06-14T03:57:45;2.60;;;2.40;;
28834;SDS011;15969;51.536;11.884;2023-06-14T04:00:10;2.80;;;2.40;;
28834;SDS011;15969;51.536;11.884;2023-06-14T04:02:37;2.50;;;2.20;;
28834;SDS011;15969;51.536;11.884;2023-06-14T04:05:03;4.60;;;2.17;;
28834;SDS011;15969;51.536;11.884;2023-06-14T04:07:30;2.80;;;2.50;;
28834;SDS011;15969;51.536;11.884;2023-06-14T04:09:56;4.30;;;2.40;;
28834;SDS011;15969;51.536;11.884;2023-06-14T04:12:21;4.40;;;2.90;;
28834;SDS011;15969;51.536;11.884;2023-06-14T04:14:47;2.83;;;2.40;;
28834;SDS011;15969;51.536;11.884;2023-06-14T04:17:13;2.90;;;2.53;;
28834;SDS011;15969;51.536;11.884;2023-06-14T04:19:39;2.90;;;2.47;;
28834;SDS011;15969;51.536;11.884;2023-06-14T04:22:05;3.30;;;2.97;;
28834;SDS011;15969;51.536;11.884;2023-06-14T04:24:30;4.63;;;2.80;;
28834;SDS011;15969;51.536;11.884;2023-06-14T04:26:59;3.00;;;2.80;;
28834;SDS011;15969;51.536;11.884;2023-06-14T04:29:26;3.60;;;3.03;;
28834;SDS011;15969;51.536;11.884;2023-06-14T04:31:54;3.63;;;3.33;;
28834;SDS011;15969;51.536;11.884;2023-06-14T04:34:23;5.73;;;3.40;;
28834;SDS011;15969;51.536;11.884;2023-06-14T04:36:58;3.60;;;3.30;;
28834;SDS011;15969;51.536;11.884;2023-06-14T04:39:26;4.77;;;3.53;;
28834;SDS011;15969;51.536;11.884;2023-06-14T04:41:52;4.93;;;3.70;;
28834;SDS011;15969;51.536;11.884;2023-06-14T04:44:21;5.50;;;3.67;;
28834;SDS011;15969;51.536;11.884;2023-06-14T04:46:55;7.27;;;4.00;;
28834;SDS011;15969;51.536;11.884;2023-06-14T04:49:23;4.90;;;4.13;;
28834;SDS011;15969;51.536;11.884;2023-06-14T04:51:49;4.73;;;3.83;;
28834;SDS011;15969;51.536;11.884;2023-06-14T04:54:22;7.53;;;3.87;;
28834;SDS011;15969;51.536;11.884;2023-06-14T04:56:50;7.07;;;3.67;;
28834;SDS011;15969;51.536;11.884;2023-06-14T04:59:16;4.57;;;4.17;;
28834;SDS011;15969;51.536;11.884;2023-06-14T05:01:42;4.73;;;4.23;;
28834;SDS011;15969;51.536;11.884;2023-06-14T05:04:12;4.63;;;3.50;;
28834;SDS011;15969;51.536;11.884;2023-06-14T05:06:43;5.17;;;4.07;;
28834;SDS011;15969;51.536;11.884;2023-06-14T05:09:10;5.00;;;3.80;;
28834;SDS011;15969;51.536;11.884;2023-06-14T05:11:37;4.13;;;3.73;;
28834;SDS011;15969;51.536;11.884;2023-06-14T05:14:02;6.07;;;4.77;;
28834;SDS011;15969;51.536;11.884;2023-06-14T05:16:28;5.00;;;4.20;;
28834;SDS011;15969;51.536;11.884;2023-06-14T05:18:54;4.63;;;4.23;;
28834;SDS011;15969;51.536;11.884;2023-06-14T05:21:20;8.90;;;4.93;;
28834;SDS011;15969;51.536;11.884;2023-06-14T05:23:46;6.00;;;4.73;;
28834;SDS011;15969;51.536;11.884;2023-06-14T05:26:11;5.47;;;4.97;;
28834;SDS011;15969;51.536;11.884;2023-06-14T05:28:37;4.77;;;4.30;;
28834;SDS011;15969;51.536;11.884;2023-06-14T05:31:03;8.03;;;4.50;;
28834;SDS011;15969;51.536;11.884;2023-06-14T05:33:28;5.50;;;4.40;;
28834;SDS011;15969;51.536;11.884;2023-06-14T05:35:54;5.43;;;4.33;;
28834;SDS011;15969;51.536;11.884;2023-06-14T05:38:20;6.13;;;4.60;;
28834;SDS011;15969;51.536;11.884;2023-06-14T05:40:46;5.30;;;4.50;;
28834;SDS011;15969;51.536;11.884;2023-06-14T05:43:12;4.37;;;4.03;;
28834;SDS011;15969;51.536;11.884;2023-06-14T05:45:37;5.07;;;4.67;;
28834;SDS011;15969;51.536;11.884;2023-06-14T05:48:03;5.23;;;4.50;;
28834;SDS011;15969;51.536;11.884;2023-06-14T05:50:29;6.33;;;4.87;;
28834;SDS011;15969;51.536;11.884;2023-06-14T05:52:55;9.10;;;4.93;;
28834;SDS011;15969;51.536;11.884;2023-06-14T05:55:20;5.30;;;4.60;;
28834;SDS011;15969;51.536;11.884;2023-06-14T05:57:46;5.90;;;4.67;;
28834;SDS011;15969;51.536;11.884;2023-06-14T06:00:13;5.60;;;4.97;;
28834;SDS011;15969;51.536;11.884;2023-06-14T06:02:41;6.97;;;4.97;;
28834;SDS011;15969;51.536;11.884;2023-06-14T06:05:10;6.07;;;5.23;;
28834;SDS011;15969;51.536;11.884;2023-06-14T06:07:38;6.07;;;4.70;;
28834;SDS011;15969;51.536;11.884;2023-06-14T06:10:05;5.13;;;4.73;;
28834;SDS011;15969;51.536;11.884;2023-06-14T06:12:31;5.43;;;4.80;;
28834;SDS011;15969;51.536;11.884;2023-06-14T06:14:57;5.80;;;4.90;;
28834;SDS011;15969;51.536;11.884;2023-06-14T06:17:24;5.27;;;4.83;;
28834;SDS011;15969;51.536;11.884;2023-06-14T06:19:51;5.90;;;4.70;;
28834;SDS011;15969;51.536;11.884;2023-06-14T06:22:16;5.37;;;4.57;;
28834;SDS011;15969;51.536;11.884;2023-06-14T06:24:42;5.40;;;5.00;;
28834;SDS011;15969;51.536;11.884;2023-06-14T06:27:08;5.67;;;5.13;;
28834;SDS011;15969;51.536;11.884;2023-06-14T06:29:34;7.17;;;4.53;;
28834;SDS011;15969;51.536;11.884;2023-06-14T06:32:00;5.60;;;5.10;;
28834;SDS011;15969;51.536;11.884;2023-06-14T06:34:26;5.43;;;4.93;;
28834;SDS011;15969;51.536;11.884;2023-06-14T06:36:53;5.60;;;5.10;;
28834;SDS011;15969;51.536;11.884;2023-06-14T06:39:20;6.43;;;5.17;;
28834;SDS011;15969;51.536;11.884;2023-06-14T06:41:45;6.30;;;5.07;;
28834;SDS011;15969;51.536;11.884;2023-06-14T06:44:11;5.57;;;4.90;;
28834;SDS011;15969;51.536;11.884;2023-06-14T06:46:38;5.23;;;4.80;;
28834;SDS011;15969;51.536;11.884;2023-06-14T06:49:05;7.03;;;4.77;;
28834;SDS011;15969;51.536;11.884;2023-06-14T06:51:31;6.37;;;4.70;;
28834;SDS011;15969;51.536;11.884;2023-06-14T06:53:57;6.13;;;5.07;;
28834;SDS011;15969;51.536;11.884;2023-06-14T06:56:23;5.53;;;4.77;;
28834;SDS011;15969;51.536;11.884;2023-06-14T06:58:51;5.73;;;4.50;;
28834;SDS011;15969;51.536;11.884;2023-06-14T07:01:17;6.00;;;4.30;;
28834;SDS011;15969;51.536;11.884;2023-06-14T07:03:46;5.90;;;5.40;;
28834;SDS011;15969;51.536;11.884;2023-06-14T07:06:12;6.43;;;4.87;;
28834;SDS011;15969;51.536;11.884;2023-06-14T07:08:37;5.23;;;4.63;;
28834;SDS011;15969;51.536;11.884;2023-06-14T07:11:04;6.80;;;4.80;;
28834;SDS011;15969;51.536;11.884;2023-06-14T07:13:30;5.03;;;4.27;;
28834;SDS011;15969;51.536;11.884;2023-06-14T07:15:59;6.43;;;4.93;;
28834;SDS011;15969;51.536;11.884;2023-06-14T07:18:26;4.83;;;4.40;;
28834;SDS011;15969;51.536;11.884;2023-06-14T07:20:52;6.73;;;4.43;;
28834;SDS011;15969;51.536;11.884;2023-06-14T07:23:19;4.80;;;4.33;;
28834;SDS011;15969;51.536;11.884;2023-06-14T07:25:45;4.43;;;3.97;;
28834;SDS011;15969;51.536;11.884;2023-06-14T07:28:12;4.63;;;4.23;;
28834;SDS011;15969;51.536;11.884;2023-06-14T07:30:38;5.77;;;4.03;;
28834;SDS011;15969;51.536;11.884;2023-06-14T07:33:03;4.60;;;4.20;;
28834;SDS011;15969;51.536;11.884;2023-06-14T07:35:29;6.83;;;4.33;;
28834;SDS011;15969;51.536;11.884;2023-06-14T07:37:55;4.33;;;3.93;;
28834;SDS011;15969;51.536;11.884;2023-06-14T07:40:20;6.13;;;3.63;;
28834;SDS011;15969;51.536;11.884;2023-06-14T07:42:46;4.37;;;3.90;;
28834;SDS011;15969;51.536;11.884;2023-06-14T07:45:13;3.90;;;3.53;;
28834;SDS011;15969;51.536;11.884;2023-06-14T07:47:39;5.20;;;3.67;;
28834;SDS011;15969;51.536;11.884;2023-06-14T07:50:05;4.33;;;3.60;;
28834;SDS011;15969;51.536;11.884;2023-06-14T07:52:31;3.87;;;3.57;;
28834;SDS011;15969;51.536;11.884;2023-06-14T07:54:57;4.77;;;4.37;;
28834;SDS011;15969;51.536;11.884;2023-06-14T07:57:23;3.73;;;3.43;;
28834;SDS011;15969;51.536;11.884;2023-06-14T07:59:48;4.97;;;3.90;;
28834;SDS011;15969;51.536;11.884;2023-06-14T08:02:15;5.27;;;3.70;;
28834;SDS011;15969;51.536;11.884;2023-06-14T08:04:40;6.07;;;3.90;;
28834;SDS011;15969;51.536;11.884;2023-06-14T08:07:07;4.30;;;3.90;;
28834;SDS011;15969;51.536;11.884;2023-06-14T08:09:33;4.03;;;3.40;;
28834;SDS011;15969;51.536;11.884;2023-06-14T08:12:02;3.57;;;3.27;;
28834;SDS011;15969;51.536;11.884;2023-06-14T08:14:37;5.50;;;3.70;;
28834;SDS011;15969;51.536;11.884;2023-06-14T08:17:04;5.93;;;4.00;;
28834;SDS011;15969;51.536;11.884;2023-06-14T08:19:30;5.23;;;4.60;;
28834;SDS011;15969;51.536;11.884;2023-06-14T08:21:56;4.83;;;4.10;;
28834;SDS011;15969;51.536;11.884;2023-06-14T08:24:22;5.10;;;3.93;;
28834;SDS011;15969;51.536;11.884;2023-06-14T08:26:51;4.57;;;4.00;;
28834;SDS011;15969;51.536;11.884;2023-06-14T08:29:21;6.50;;;3.73;;
28834;SDS011;15969;51.536;11.884;2023-06-14T08:31:47;7.77;;;3.80;;
28834;SDS011;15969;51.536;11.884;2023-06-14T08:34:13;4.40;;;4.00;;
28834;SDS011;15969;51.536;11.884;2023-06-14T08:36:39;5.40;;;4.13;;
28834;SDS011;15969;51.536;11.884;2023-06-14T08:39:04;6.27;;;3.40;;
28834;SDS011;15969;51.536;11.884;2023-06-14T08:41:30;3.80;;;3.50;;
28834;SDS011;15969;51.536;11.884;2023-06-14T08:43:57;3.80;;;3.40;;
28834;SDS011;15969;51.536;11.884;2023-06-14T08:46:25;7.23;;;3.53;;
28834;SDS011;15969;51.536;11.884;2023-06-14T08:48:52;4.30;;;3.67;;
28834;SDS011;15969;51.536;11.884;2023-06-14T08:51:23;3.63;;;3.33;;
28834;SDS011;15969;51.536;11.884;2023-06-14T08:53:55;3.70;;;3.40;;
28834;SDS011;15969;51.536;11.884;2023-06-14T08:56:23;4.63;;;3.20;;
28834;SDS011;15969;51.536;11.884;2023-06-14T08:58:52;4.70;;;3.27;;
28834;SDS011;15969;51.536;11.884;2023-06-14T09:01:19;4.40;;;3.10;;
28834;SDS011;15969;51.536;11.884;2023-06-14T09:03:46;4.97;;;3.20;;
28834;SDS011;15969;51.536;11.884;2023-06-14T09:06:13;5.37;;;3.67;;
28834;SDS011;15969;51.536;11.884;2023-06-14T09:08:41;3.83;;;3.53;;
28834;SDS011;15969;51.536;11.884;2023-06-14T09:11:10;5.70;;;3.20;;
28834;SDS011;15969;51.536;11.884;2023-06-14T09:13:37;4.73;;;3.23;;
28834;SDS011;15969;51.536;11.884;2023-06-14T09:16:04;5.67;;;3.30;;
28834;SDS011;15969;51.536;11.884;2023-06-14T09:18:34;3.70;;;3.30;;
28834;SDS011;15969;51.536;11.884;2023-06-14T09:21:06;5.97;;;3.43;;
28834;SDS011;15969;51.536;11.884;2023-06-14T09:23:33;3.13;;;2.93;;
28834;SDS011;15969;51.536;11.884;2023-06-14T09:26:09;4.37;;;2.90;;
28834;SDS011;15969;51.536;11.884;2023-06-14T09:28:40;4.90;;;3.30;;
28834;SDS011;15969;51.536;11.884;2023-06-14T09:31:11;3.60;;;3.30;;
28834;SDS011;15969;51.536;11.884;2023-06-14T09:33:39;5.47;;;3.20;;
28834;SDS011;15969;51.536;11.884;2023-06-14T09:36:12;4.30;;;3.13;;
28834;SDS011;15969;51.536;11.884;2023-06-14T09:38:54;3.67;;;3.20;;
28834;SDS011;15969;51.536;11.884;2023-06-14T09:44:08;3.50;;;2.93;;
28834;SDS011;15969;51.536;11.884;2023-06-14T09:46:37;3.57;;;3.27;;
28834;SDS011;15969;51.536;11.884;2023-06-14T09:49:03;8.37;;;3.57;;
28834;SDS011;15969;51.536;11.884;2023-06-14T09:51:30;3.67;;;3.10;;
28834;SDS011;15969;51.536;11.884;2023-06-14T09:53:59;4.37;;;2.70;;
28834;SDS011;15969;51.536;11.884;2023-06-14T09:56:37;3.67;;;2.57;;
28834;SDS011;15969;51.536;11.884;2023-06-14T09:59:06;3.00;;;2.80;;
28834;SDS011;15969;51.536;11.884;2023-06-14T10:01:35;2.80;;;2.60;;
28834;SDS011;15969;51.536;11.884;2023-06-14T10:04:07;2.73;;;2.50;;
28834;SDS011;15969;51.536;11.884;2023-06-14T10:06:35;3.90;;;3.07;;
28834;SDS011;15969;51.536;11.884;2023-06-14T10:09:05;3.77;;;2.77;;
28834;SDS011;15969;51.536;11.884;2023-06-14T10:11:34;6.67;;;2.80;;
28834;SDS011;15969;51.536;11.884;2023-06-14T10:14:02;3.43;;;2.90;;
28834;SDS011;15969;51.536;11.884;2023-06-14T10:19:34;2.60;;;2.40;;
28834;SDS011;15969;51.536;11.884;2023-06-14T10:22:19;3.57;;;2.47;;
28834;SDS011;15969;51.536;11.884;2023-06-14T10:24:54;6.13;;;2.60;;
28834;SDS011;15969;51.536;11.884;2023-06-14T10:27:21;7.07;;;2.60;;
28834;SDS011;15969;51.536;11.884;2023-06-14T10:32:20;3.00;;;2.70;;
28834;SDS011;15969;51.536;11.884;2023-06-14T10:34:58;2.50;;;2.30;;
28834;SDS011;15969;51.536;11.884;2023-06-14T10:37:34;4.43;;;2.50;;
28834;SDS011;15969;51.536;11.884;2023-06-14T10:40:00;5.33;;;2.57;;
28834;SDS011;15969;51.536;11.884;2023-06-14T10:42:27;4.93;;;2.53;;
28834;SDS011;15969;51.536;11.884;2023-06-14T10:44:57;4.47;;;2.57;;
28834;SDS011;15969;51.536;11.884;2023-06-14T10:47:29;3.63;;;2.37;;
28834;SDS011;15969;51.536;11.884;2023-06-14T10:50:04;4.87;;;2.33;;
28834;SDS011;15969;51.536;11.884;2023-06-14T10:52:39;2.67;;;2.40;;
28834;SDS011;15969;51.536;11.884;2023-06-14T10:57:45;4.87;;;2.33;;
28834;SDS011;15969;51.536;11.884;2023-06-14T11:00:17;5.80;;;2.17;;
28834;SDS011;15969;51.536;11.884;2023-06-14T11:10:50;2.60;;;2.30;;
28834;SDS011;15969;51.536;11.884;2023-06-14T11:13:16;3.07;;;2.73;;
28834;SDS011;15969;51.536;11.884;2023-06-14T11:15:47;3.87;;;2.80;;
28834;SDS011;15969;51.536;11.884;2023-06-14T11:18:14;3.57;;;2.30;;
28834;SDS011;15969;51.536;11.884;2023-06-14T11:20:41;3.37;;;2.60;;
28834;SDS011;15969;51.536;11.884;2023-06-14T11:23:07;4.80;;;2.50;;
28834;SDS011;15969;51.536;11.884;2023-06-14T11:25:33;2.70;;;2.50;;
28834;SDS011;15969;51.536;11.884;2023-06-14T11:27:58;3.30;;;2.43;;
28834;SDS011;15969;51.536;11.884;2023-06-14T11:30:25;4.13;;;2.50;;
28834;SDS011;15969;51.536;11.884;2023-06-14T11:32:51;3.87;;;2.70;;
28834;SDS011;15969;51.536;11.884;2023-06-14T11:35:18;6.47;;;3.37;;
28834;SDS011;15969;51.536;11.884;2023-06-14T11:37:48;3.30;;;3.00;;
28834;SDS011;15969;51.536;11.884;2023-06-14T11:40:14;3.43;;;2.87;;
28834;SDS011;15969;51.536;11.884;2023-06-14T11:42:41;4.50;;;2.67;;
28834;SDS011;15969;51.536;11.884;2023-06-14T11:45:07;3.10;;;2.80;;
28834;SDS011;15969;51.536;11.884;2023-06-14T11:47:34;2.83;;;2.60;;
28834;SDS011;15969;51.536;11.884;2023-06-14T11:50:01;4.50;;;2.83;;
28834;SDS011;15969;51.536;11.884;2023-06-14T11:52:28;3.97;;;2.70;;
28834;SDS011;15969;51.536;11.884;2023-06-14T11:54:54;3.70;;;3.40;;
28834;SDS011;15969;51.536;11.884;2023-06-14T11:57:22;3.57;;;3.27;;
28834;SDS011;15969;51.536;11.884;2023-06-14T11:59:48;3.50;;;3.20;;
28834;SDS011;15969;51.536;11.884;2023-06-14T12:02:14;3.30;;;3.00;;
28834;SDS011;15969;51.536;11.884;2023-06-14T12:04:41;3.63;;;3.33;;
28834;SDS011;15969;51.536;11.884;2023-06-14T12:07:08;5.07;;;3.17;;
28834;SDS011;15969;51.536;11.884;2023-06-14T12:10:03;3.17;;;2.97;;
28834;SDS011;15969;51.536;11.884;2023-06-14T12:12:34;3.30;;;3.00;;
28834;SDS011;15969;51.536;11.884;2023-06-14T12:15:04;3.30;;;3.00;;
28834;SDS011;15969;51.536;11.884;2023-06-14T12:17:33;5.83;;;3.40;;
28834;SDS011;15969;51.536;11.884;2023-06-14T12:20:05;4.67;;;3.23;;
28834;SDS011;15969;51.536;11.884;2023-06-14T12:22:50;3.97;;;3.00;;
28834;SDS011;15969;51.536;11.884;2023-06-14T12:28:09;3.80;;;3.37;;
28834;SDS011;15969;51.536;11.884;2023-06-14T12:30:35;5.13;;;3.40;;
28834;SDS011;15969;51.536;11.884;2023-06-14T12:33:05;7.00;;;3.40;;
28834;SDS011;15969;51.536;11.884;2023-06-14T12:35:31;8.63;;;3.60;;
28834;SDS011;15969;51.536;11.884;2023-06-14T12:37:57;4.83;;;3.50;;
28834;SDS011;15969;51.536;11.884;2023-06-14T12:40:22;3.87;;;3.47;;
28834;SDS011;15969;51.536;11.884;2023-06-14T12:42:48;6.13;;;3.67;;
28834;SDS011;15969;51.536;11.884;2023-06-14T12:45:14;4.53;;;3.80;;
28834;SDS011;15969;51.536;11.884;2023-06-14T12:47:40;4.93;;;3.53;;
28834;SDS011;15969;51.536;11.884;2023-06-14T12:50:07;7.00;;;3.60;;
28834;SDS011;15969;51.536;11.884;2023-06-14T12:52:33;3.57;;;3.13;;
28834;SDS011;15969;51.536;11.884;2023-06-14T12:55:02;5.27;;;3.30;;
28834;SDS011;15969;51.536;11.884;2023-06-14T12:57:29;4.70;;;3.27;;
28834;SDS011;15969;51.536;11.884;2023-06-14T12:59:54;4.83;;;2.90;;
28834;SDS011;15969;51.536;11.884;2023-06-14T13:02:20;6.13;;;3.40;;
28834;SDS011;15969;51.536;11.884;2023-06-14T13:04:48;3.30;;;2.97;;
28834;SDS011;15969;51.536;11.884;2023-06-14T13:07:14;4.73;;;3.40;;
28834;SDS011;15969;51.536;11.884;2023-06-14T13:09:40;4.00;;;3.27;;
28834;SDS011;15969;51.536;11.884;2023-06-14T13:12:06;3.97;;;3.23;;
28834;SDS011;15969;51.536;11.884;2023-06-14T13:14:35;3.40;;;3.10;;
28834;SDS011;15969;51.536;11.884;2023-06-14T13:17:01;3.43;;;3.13;;
28834;SDS011;15969;51.536;11.884;2023-06-14T13:19:27;4.30;;;2.97;;
28834;SDS011;15969;51.536;11.884;2023-06-14T13:21:53;6.83;;;2.83;;
28834;SDS011;15969;51.536;11.884;2023-06-14T13:24:18;2.57;;;2.37;;
28834;SDS011;15969;51.536;11.884;2023-06-14T13:26:44;3.00;;;2.80;;
28834;SDS011;15969;51.536;11.884;2023-06-14T13:29:10;3.37;;;2.90;;
28834;SDS011;15969;51.536;11.884;2023-06-14T13:31:35;4.87;;;2.87;;
28834;SDS011;15969;51.536;11.884;2023-06-14T13:34:01;3.50;;;2.97;;
28834;SDS011;15969;51.536;11.884;2023-06-14T13:36:27;4.40;;;2.77;;
28834;SDS011;15969;51.536;11.884;2023-06-14T13:38:52;6.27;;;3.60;;
28834;SDS011;15969;51.536;11.884;2023-06-14T13:41:19;3.80;;;2.90;;
28834;SDS011;15969;51.536;11.884;2023-06-14T13:43:45;6.43;;;3.67;;
28834;SDS011;15969;51.536;11.884;2023-06-14T13:46:11;5.40;;;3.30;;
28834;SDS011;15969;51.536;11.884;2023-06-14T13:48:36;5.13;;;2.97;;
28834;SDS011;15969;51.536;11.884;2023-06-14T13:51:02;5.93;;;3.30;;
28834;SDS011;15969;51.536;11.884;2023-06-14T13:53:29;4.33;;;3.53;;
28834;SDS011;15969;51.536;11.884;2023-06-14T13:55:55;4.37;;;3.30;;
28834;SDS011;15969;51.536;11.884;2023-06-14T13:58:21;3.60;;;3.13;;
28834;SDS011;15969;51.536;11.884;2023-06-14T14:00:48;4.20;;;3.00;;
28834;SDS011;15969;51.536;11.884;2023-06-14T14:03:14;3.23;;;2.93;;
28834;SDS011;15969;51.536;11.884;2023-06-14T14:05:39;2.60;;;2.30;;
28834;SDS011;15969;51.536;11.884;2023-06-14T14:08:05;5.37;;;3.13;;
28834;SDS011;15969;51.536;11.884;2023-06-14T14:10:31;4.97;;;2.90;;
28834;SDS011;15969;51.536;11.884;2023-06-14T14:12:56;4.00;;;2.70;;
28834;SDS011;15969;51.536;11.884;2023-06-14T14:15:22;3.43;;;2.97;;
28834;SDS011;15969;51.536;11.884;2023-06-14T14:17:48;4.87;;;3.30;;
28834;SDS011;15969;51.536;11.884;2023-06-14T14:20:13;4.43;;;3.10;;
28834;SDS011;15969;51.536;11.884;2023-06-14T14:22:43;4.60;;;3.20;;
28834;SDS011;15969;51.536;11.884;2023-06-14T14:25:09;4.70;;;3.20;;
28834;SDS011;15969;51.536;11.884;2023-06-14T14:27:35;5.10;;;3.03;;
28834;SDS011;15969;51.536;11.884;2023-06-14T14:30:02;5.20;;;3.00;;
28834;SDS011;15969;51.536;11.884;2023-06-14T14:32:29;4.70;;;3.23;;
28834;SDS011;15969;51.536;11.884;2023-06-14T14:34:54;4.03;;;2.80;;
28834;SDS011;15969;51.536;11.884;2023-06-14T14:37:20;7.57;;;3.30;;
28834;SDS011;15969;51.536;11.884;2023-06-14T14:39:46;5.50;;;3.17;;
28834;SDS011;15969;51.536;11.884;2023-06-14T14:42:12;3.50;;;3.20;;
28834;SDS011;15969;51.536;11.884;2023-06-14T14:44:38;4.57;;;2.90;;
28834;SDS011;15969;51.536;11.884;2023-06-14T14:47:04;4.03;;;3.63;;
28834;SDS011;15969;51.536;11.884;2023-06-14T14:49:31;3.43;;;3.13;;
28834;SDS011;15969;51.536;11.884;2023-06-14T14:51:57;5.20;;;3.17;;
28834;SDS011;15969;51.536;11.884;2023-06-14T14:54:22;7.37;;;3.50;;
28834;SDS011;15969;51.536;11.884;2023-06-14T14:56:50;6.30;;;3.13;;
28834;SDS011;15969;51.536;11.884;2023-06-14T14:59:16;3.30;;;3.00;;